Time;durP1;ratioP1;P1;durP2;ratioP2;P2;SDS_P1;SDS_P2;PMS_P1;PMS_P2;Temp;Humidity;BMP_temperature;BMP_pressure;BME280_temperature;BME280_humidity;BME280_pressure;Samples;Min_cycle;Max_cycle;Signal;HPM_P1;HPM_P2
2023/04/20 00:02:08;;;;;;;2.83;1.85;;;8.90;93.90;;;;;;5075349;28;20167;-78
2023/04/20 00:04:35;;;;;;;3.75;1.75;;;9.00;93.70;;;;;;5091793;28;20073;-80
2023/04/20 00:07:01;;;;;;;9.93;2.40;;;9.00;93.60;;;;;;5092005;28;20044;-79
2023/04/20 00:09:30;;;;;;;2.92;1.75;;;9.10;93.80;;;;;;5108908;28;20065;-78
2023/04/20 00:11:56;;;;;;;2.38;1.92;;;9.30;93.70;;;;;;5110215;28;20476;-80
2023/04/20 00:14:22;;;;;;;4.25;2.47;;;9.30;93.80;;;;;;5110422;28;20131;-79
2023/04/20 00:16:47;;;;;;;12.15;2.30;;;9.40;93.80;;;;;;5110494;28;20052;-80
2023/04/20 00:19:13;;;;;;;5.00;2.38;;;9.50;93.80;;;;;;5092120;28;20673;-79
2023/04/20 00:21:39;;;;;;;4.25;2.10;;;9.40;93.80;;;;;;5058784;28;20131;-78
2023/04/20 00:24:05;;;;;;;3.28;2.42;;;9.40;93.90;;;;;;5109965;28;20086;-80
2023/04/20 00:26:31;;;;;;;4.35;3.15;;;9.40;93.90;;;;;;5091851;28;20122;-78
2023/04/20 00:28:57;;;;;;;4.68;2.70;;;9.20;94.60;;;;;;5091609;28;20100;-78
2023/04/20 00:31:23;;;;;;;4.55;2.72;;;9.30;94.60;;;;;;5109757;28;20055;-78
2023/04/20 00:33:48;;;;;;;4.53;2.67;;;9.20;94.70;;;;;;5091350;28;20074;-79
2023/04/20 00:36:14;;;;;;;3.75;2.80;;;9.20;95.00;;;;;;5091451;28;20393;-79
2023/04/20 00:38:40;;;;;;;3.53;2.72;;;9.30;94.70;;;;;;5091758;28;20040;-80
2023/04/20 00:41:06;;;;;;;4.40;3.05;;;9.30;94.90;;;;;;5109550;28;20047;-78
2023/04/20 00:43:31;;;;;;;5.05;3.30;;;9.30;94.90;;;;;;5110545;28;20139;-79
2023/04/20 00:45:57;;;;;;;2.63;2.33;;;9.30;95.00;;;;;;5095350;28;20534;-79
2023/04/20 00:48:23;;;;;;;4.35;2.85;;;9.30;95.10;;;;;;5079723;28;20051;-80
2023/04/20 00:50:49;;;;;;;2.90;2.63;;;9.20;95.10;;;;;;5082867;28;20036;-80
2023/04/20 00:53:14;;;;;;;4.80;2.30;;;9.20;95.40;;;;;;5114286;28;20093;-79
2023/04/20 00:55:42;;;;;;;3.72;2.90;;;9.30;95.40;;;;;;5078451;28;20055;-77
2023/04/20 00:58:08;;;;;;;5.97;3.13;;;9.20;95.50;;;;;;5112453;28;20070;-78
2023/04/20 01:00:34;;;;;;;5.53;2.40;;;9.20;95.40;;;;;;5061933;28;20517;-78
2023/04/20 01:03:00;;;;;;;3.22;2.58;;;9.20;95.60;;;;;;5095203;28;20132;-80
2023/04/20 01:05:33;;;;;;;3.53;2.30;;;9.20;95.70;;;;;;5078064;28;20443;-79
2023/04/20 01:07:58;;;;;;;3.13;2.20;;;9.20;95.70;;;;;;5096372;28;20532;-78
2023/04/20 01:10:27;;;;;;;5.10;2.50;;;9.40;95.10;;;;;;5113602;28;20518;-78
2023/04/20 01:12:54;;;;;;;4.03;2.42;;;9.40;95.30;;;;;;5094435;28;20060;-78
2023/04/20 01:15:20;;;;;;;2.08;1.70;;;8.70;95.40;;;;;;5113259;28;20546;-79
2023/04/20 01:17:46;;;;;;;4.30;2.45;;;9.40;95.10;;;;;;5061052;28;20154;-79
2023/04/20 01:20:15;;;;;;;3.80;2.10;;;9.30;95.30;;;;;;5061735;28;20047;-81
2023/04/20 01:22:47;;;;;;;4.10;2.10;;;9.20;95.60;;;;;;5094040;28;20435;-80
2023/04/20 01:25:13;;;;;;;3.40;2.13;;;9.30;95.20;;;;;;5078179;28;20051;-80
2023/04/20 01:27:40;;;;;;;3.45;2.40;;;9.20;95.80;;;;;;5113367;28;20372;-79
2023/04/20 01:30:06;;;;;;;2.55;2.13;;;9.10;96.00;;;;;;5092432;28;20059;-79
2023/04/20 01:32:32;;;;;;;3.75;2.25;;;9.10;95.80;;;;;;5077963;28;20065;-79
2023/04/20 01:35:04;;;;;;;3.13;2.40;;;9.10;96.00;;;;;;5093125;28;20072;-79
2023/04/20 01:37:30;;;;;;;3.05;2.30;;;9.00;96.20;;;;;;5114535;28;20066;-78
2023/04/20 01:39:56;;;;;;;4.80;2.55;;;9.00;96.20;;;;;;5097363;28;20090;-79
2023/04/20 01:42:22;;;;;;;3.92;2.42;;;9.10;96.00;;;;;;5083192;28;20059;-80
2023/04/20 01:44:48;;;;;;;2.70;2.13;;;9.00;96.20;;;;;;5103593;28;20039;-81
2023/04/20 01:47:14;;;;;;;5.78;2.50;;;8.90;96.40;;;;;;5080775;28;20048;-79
2023/04/20 01:49:40;;;;;;;2.45;1.60;;;8.90;96.70;;;;;;5062386;28;20106;-79
2023/04/20 01:52:11;;;;;;;2.78;1.98;;;9.00;96.60;;;;;;5113257;28;20048;-79
2023/04/20 01:54:39;;;;;;;6.03;2.42;;;9.00;96.70;;;;;;5078209;28;20399;-79
2023/04/20 01:57:05;;;;;;;2.90;1.80;;;8.90;96.90;;;;;;5111983;28;20060;-79
2023/04/20 01:59:31;;;;;;;5.28;2.53;;;8.90;97.20;;;;;;5113179;28;20051;-79
2023/04/20 02:01:56;;;;;;;3.25;1.83;;;9.00;97.00;;;;;;5113145;28;20478;-79
2023/04/20 02:04:22;;;;;;;2.72;2.03;;;9.10;96.70;;;;;;5094344;28;20487;-79
2023/04/20 02:06:48;;;;;;;2.20;1.90;;;9.10;96.70;;;;;;5094627;28;20047;-78
2023/04/20 02:09:14;;;;;;;3.58;1.80;;;9.10;96.70;;;;;;5093872;28;20564;-80
2023/04/20 02:11:40;;;;;;;3.30;1.80;;;9.00;96.70;;;;;;5112711;28;20048;-81
2023/04/20 02:14:07;;;;;;;1.67;1.42;;;9.00;96.60;;;;;;5076600;28;20147;-80
2023/04/20 02:16:36;;;;;;;3.60;2.08;;;9.00;96.50;;;;;;5078332;28;20047;-79
2023/04/20 02:19:08;;;;;;;3.20;2.22;;;8.90;96.80;;;;;;5094637;28;20073;-78
2023/04/20 02:21:34;;;;;;;5.05;2.55;;;8.70;97.30;;;;;;5093453;28;20064;-79
2023/04/20 02:24:00;;;;;;;3.72;1.98;;;8.70;97.30;;;;;;5111131;28;20711;-80
2023/04/20 02:26:28;;;;;;;5.32;1.52;;;8.80;97.30;;;;;;5094176;28;20051;-80
2023/04/20 02:28:54;;;;;;;5.20;1.92;;;8.80;97.20;;;;;;5093469;28;20108;-79
2023/04/20 02:31:21;;;;;;;5.28;2.75;;;8.70;97.60;;;;;;5093659;28;20082;-79
2023/04/20 02:33:48;;;;;;;2.53;1.85;;;8.60;97.60;;;;;;5077282;28;20039;-77
2023/04/20 02:36:14;;;;;;;9.68;2.67;;;8.80;97.60;;;;;;5077062;28;20051;-80
2023/04/20 02:38:40;;;;;;;5.40;2.70;;;8.80;97.50;;;;;;5111902;28;20043;-78
2023/04/20 02:41:06;;;;;;;3.53;2.22;;;8.80;96.80;;;;;;5111888;28;20104;-79
2023/04/20 02:43:34;;;;;;;4.30;2.15;;;8.90;96.80;;;;;;5094017;28;20055;-79
2023/04/20 02:46:00;;;;;;;2.33;2.10;;;8.90;96.70;;;;;;5112332;28;20047;-79
2023/04/20 02:48:26;;;;;;;4.55;2.15;;;8.80;96.60;;;;;;5111836;28;20092;-79
2023/04/20 02:50:55;;;;;;;1.52;1.42;;;8.90;96.40;;;;;;5111791;28;20059;-81
2023/04/20 02:53:22;;;;;;;2.13;1.27;;;8.90;96.20;;;;;;5111733;28;20122;-80
2023/04/20 02:55:47;;;;;;;1.80;1.70;;;9.00;95.00;;;;;;5093093;28;20043;-80
2023/04/20 02:58:14;;;;;;;3.55;2.15;;;9.10;94.80;;;;;;5111475;28;20088;-80
2023/04/20 03:00:39;;;;;;;4.25;1.92;;;9.30;94.00;;;;;;5076982;28;20058;-79
2023/04/20 03:03:05;;;;;;;2.67;1.85;;;9.20;94.00;;;;;;5093101;28;20048;-78
2023/04/20 03:05:32;;;;;;;4.35;2.40;;;9.20;94.20;;;;;;5075619;28;20138;-79
2023/04/20 03:08:03;;;;;;;3.70;2.28;;;9.20;94.20;;;;;;5077868;28;20062;-77
2023/04/20 03:10:29;;;;;;;5.95;2.42;;;9.20;94.40;;;;;;5113595;28;20070;-78
2023/04/20 03:12:55;;;;;;;1.60;1.50;;;9.20;93.70;;;;;;5094712;28;20055;-79
2023/04/20 03:15:28;;;;;;;2.13;1.75;;;9.20;93.50;;;;;;5110772;28;20068;-80
2023/04/20 03:17:54;;;;;;;1.92;1.73;;;9.40;92.50;;;;;;5110782;28;20495;-80
2023/04/20 03:20:19;;;;;;;3.70;2.33;;;9.40;92.60;;;;;;5059196;28;20116;-80
2023/04/20 03:22:45;;;;;;;5.85;2.00;;;9.40;92.30;;;;;;5075836;28;20047;-80
2023/04/20 03:25:15;;;;;;;5.80;2.50;;;9.40;92.40;;;;;;5060399;28;20131;-79
2023/04/20 03:27:40;;;;;;;2.08;1.88;;;9.30;92.70;;;;;;5111140;28;20189;-80
2023/04/20 03:30:10;;;;;;;3.60;2.50;;;9.30;93.10;;;;;;5076148;28;20103;-79
2023/04/20 03:32:37;;;;;;;3.35;2.60;;;9.20;93.10;;;;;;5110164;28;20062;-78
2023/04/20 03:35:04;;;;;;;4.57;2.13;;;9.10;93.40;;;;;;5076000;28;20082;-80
2023/04/20 03:37:31;;;;;;;3.40;2.28;;;9.30;93.20;;;;;;5092379;28;20055;-80
2023/04/20 03:39:57;;;;;;;3.10;2.60;;;9.20;92.90;;;;;;5092595;28;20079;-81
2023/04/20 03:42:22;;;;;;;3.83;2.33;;;9.10;93.80;;;;;;5075506;28;20098;-80
2023/04/20 03:44:48;;;;;;;2.45;2.20;;;9.60;93.00;;;;;;5091651;28;20059;-81
2023/04/20 03:47:14;;;;;;;4.25;2.47;;;9.40;93.00;;;;;;5092127;28;20052;-79
2023/04/20 03:49:39;;;;;;;5.13;2.08;;;9.10;93.60;;;;;;5092385;28;20444;-79
2023/04/20 03:52:06;;;;;;;2.60;1.63;;;9.10;93.60;;;;;;5092758;28;20048;-79
2023/04/20 03:54:31;;;;;;;5.43;2.08;;;9.00;93.00;;;;;;5093175;28;20047;-80
2023/04/20 03:56:57;;;;;;;2.70;2.42;;;9.20;92.90;;;;;;5078022;28;20372;-78
2023/04/20 03:59:26;;;;;;;2.40;2.00;;;9.20;93.20;;;;;;5096231;28;20407;-78
2023/04/20 04:01:51;;;;;;;3.30;2.33;;;9.00;93.50;;;;;;5103183;28;20065;-79
2023/04/20 04:04:39;;;;;;;3.20;2.30;;;9.00;94.30;;;;;;5096202;28;20044;-79
2023/04/20 04:07:06;;;;;;;;;;;9.00;94.20;;;;;;5111676;28;20137;-78
2023/04/20 04:09:33;;;;;;;3.45;2.17;;;8.80;95.30;;;;;;5075581;28;19923;-79
2023/04/20 04:12:05;;;;;;;5.82;1.98;;;8.70;95.30;;;;;;5060874;28;20112;-80
2023/04/20 04:14:32;;;;;;;3.95;2.35;;;8.70;95.40;;;;;;5075318;28;20058;-79
2023/04/20 04:16:57;;;;;;;1.92;1.73;;;8.70;95.60;;;;;;5092348;28;20047;-79
2023/04/20 04:19:23;;;;;;;5.13;2.08;;;8.20;96.30;;;;;;5074529;28;20664;-79
2023/04/20 04:21:49;;;;;;;3.10;2.40;;;8.50;96.20;;;;;;5091954;28;20091;-78
2023/04/20 04:24:15;;;;;;;3.58;2.03;;;8.50;95.80;;;;;;5058811;28;20043;-78
2023/04/20 04:26:41;;;;;;;6.93;2.10;;;8.50;96.20;;;;;;5075570;28;20136;-78
2023/04/20 04:29:09;;;;;;;4.43;2.13;;;8.70;96.30;;;;;;5075632;28;20086;-79
2023/04/20 04:31:36;;;;;;;3.03;2.55;;;8.50;97.50;;;;;;5110049;28;20112;-79
2023/04/20 04:34:05;;;;;;;5.75;2.08;;;8.10;98.50;;;;;;5075719;28;20088;-80
2023/04/20 04:36:31;;;;;;;4.30;2.70;;;7.90;99.90;;;;;;5091631;28;20044;-79
2023/04/20 04:38:56;;;;;;;3.33;2.05;;;8.00;99.90;;;;;;5091857;28;20043;-80
2023/04/20 04:41:23;;;;;;;4.63;2.53;;;8.00;99.20;;;;;;5074939;28;20059;-80
2023/04/20 04:43:48;;;;;;;4.03;2.42;;;7.90;99.30;;;;;;5109564;28;20047;-79
2023/04/20 04:46:14;;;;;;;3.75;2.70;;;7.70;99.90;;;;;;5110038;28;20073;-80
2023/04/20 04:48:41;;;;;;;2.17;1.98;;;7.60;99.90;;;;;;5091424;28;20146;-78
2023/04/20 04:51:07;;;;;;;2.58;2.38;;;7.90;99.90;;;;;;5074471;28;20055;-80
2023/04/20 04:53:33;;;;;;;5.72;2.95;;;7.70;99.90;;;;;;5057351;28;20090;-79
2023/04/20 04:55:58;;;;;;;4.22;3.08;;;7.60;99.90;;;;;;5073553;28;20079;-78
2023/04/20 04:58:30;;;;;;;5.65;2.83;;;7.50;99.90;;;;;;5109234;28;20082;-79
2023/04/20 05:00:55;;;;;;;5.53;2.53;;;7.50;99.90;;;;;;5090919;28;20058;-78
2023/04/20 05:03:21;;;;;;;7.32;2.70;;;7.70;99.90;;;;;;5091356;28;20130;-79
2023/04/20 05:05:47;;;;;;;5.25;2.33;;;7.60;99.90;;;;;;5091008;28;20517;-79
2023/04/20 05:08:12;;;;;;;4.63;1.92;;;7.50;99.90;;;;;;5108619;28;20051;-79
2023/04/20 05:10:38;;;;;;;3.00;1.73;;;7.80;99.90;;;;;;5109982;28;20059;-78
2023/04/20 05:13:04;;;;;;;4.85;2.88;;;7.80;99.90;;;;;;5109296;28;20383;-82
2023/04/20 05:15:30;;;;;;;3.47;1.48;;;7.70;99.90;;;;;;5057468;28;20127;-79
2023/04/20 05:17:56;;;;;;;7.32;2.28;;;7.80;99.90;;;;;;5109628;28;20047;-80
2023/04/20 05:20:21;;;;;;;4.95;2.28;;;7.80;99.80;;;;;;5109897;28;20052;-79
2023/04/20 05:22:47;;;;;;;3.25;1.75;;;7.90;99.90;;;;;;5091399;28;20047;-81
2023/04/20 05:25:13;;;;;;;1.63;1.52;;;8.00;99.20;;;;;;5090935;28;20181;-80
2023/04/20 05:27:38;;;;;;;2.88;1.80;;;8.00;99.90;;;;;;5090818;28;20044;-79
2023/04/20 05:30:05;;;;;;;3.63;1.80;;;8.00;99.80;;;;;;5092980;28;20051;-81
2023/04/20 05:32:30;;;;;;;4.55;2.50;;;7.90;99.20;;;;;;5094652;28;20059;-78
2023/04/20 05:34:57;;;;;;;3.45;2.00;;;7.80;98.90;;;;;;5094543;28;20389;-78
2023/04/20 05:37:22;;;;;;;4.53;2.30;;;7.80;99.80;;;;;;5094843;28;20099;-77
2023/04/20 05:39:48;;;;;;;3.45;2.50;;;7.70;99.90;;;;;;5116791;28;20083;-77
2023/04/20 05:42:14;;;;;;;2.28;2.08;;;7.80;99.90;;;;;;5094573;28;20126;-80
2023/04/20 05:44:40;;;;;;;2.53;1.75;;;7.70;99.90;;;;;;5112218;28;20051;-80
2023/04/20 05:47:07;;;;;;;3.67;2.60;;;7.70;99.90;;;;;;5060924;28;20047;-79
2023/04/20 05:49:33;;;;;;;6.63;2.38;;;7.80;99.90;;;;;;5112805;28;20055;-78
2023/04/20 05:52:00;;;;;;;4.75;2.63;;;7.60;99.90;;;;;;5112572;28;20566;-78
2023/04/20 05:54:27;;;;;;;4.63;3.13;;;7.50;99.90;;;;;;5093866;28;20043;-79
2023/04/20 05:56:53;;;;;;;6.72;3.03;;;7.40;99.90;;;;;;5094301;28;20070;-79
2023/04/20 05:59:19;;;;;;;3.05;2.42;;;7.40;99.90;;;;;;5060795;28;20062;-78
2023/04/20 06:01:45;;;;;;;4.55;2.63;;;7.60;99.90;;;;;;5112489;28;20051;-77
2023/04/20 06:04:10;;;;;;;4.28;2.03;;;7.50;99.90;;;;;;5112100;28;20044;-78
2023/04/20 06:06:36;;;;;;;3.45;2.53;;;7.60;99.90;;;;;;5077018;28;20051;-79
2023/04/20 06:09:03;;;;;;;1.63;1.40;;;7.70;99.90;;;;;;5112253;28;22087;-80
2023/04/20 06:11:30;;;;;;;5.20;2.30;;;7.70;99.90;;;;;;5113745;28;20571;-80
2023/04/20 06:14:03;;;;;;;6.85;2.63;;;7.60;99.90;;;;;;5080928;28;20108;-78
2023/04/20 06:16:28;;;;;;;5.03;2.97;;;7.50;99.90;;;;;;5082679;28;20048;-79
2023/04/20 06:18:54;;;;;;;7.75;2.70;;;7.40;99.90;;;;;;5125486;28;20048;-80
2023/04/20 06:21:20;;;;;;;3.78;2.25;;;7.40;99.90;;;;;;5078674;28;20509;-79
2023/04/20 06:23:48;;;;;;;6.72;3.17;;;7.30;99.90;;;;;;5094905;28;20402;-80
2023/04/20 06:26:15;;;;;;;5.20;2.25;;;7.30;99.90;;;;;;5078766;28;20051;-80
2023/04/20 06:28:41;;;;;;;4.65;3.30;;;7.20;99.90;;;;;;5077083;28;20098;-81
2023/04/20 06:31:08;;;;;;;5.80;3.20;;;7.10;99.90;;;;;;5059922;28;20051;-80
2023/04/20 06:33:45;;;;;;;5.65;4.00;;;6.90;99.90;;;;;;5093602;28;20085;-80
2023/04/20 06:36:11;;;;;;;5.22;3.10;;;6.80;99.90;;;;;;5111610;28;20098;-80
2023/04/20 06:38:37;;;;;;;5.63;3.20;;;6.70;99.90;;;;;;5043205;28;20051;-82
2023/04/20 06:41:06;;;;;;;5.65;3.35;;;6.60;99.90;;;;;;5075988;28;20090;-80
2023/04/20 06:43:32;;;;;;;8.02;3.70;;;6.50;99.90;;;;;;5078276;27;20086;-79
2023/04/20 06:45:57;;;;;;;3.40;3.03;;;6.10;99.90;;;;;;5104156;27;20100;-82
2023/04/20 06:48:23;;;;;;;5.53;3.45;;;6.20;99.90;;;;;;5104199;27;20080;-83
2023/04/20 06:50:49;;;;;;;4.10;2.95;;;6.00;99.90;;;;;;5086146;27;20043;-83
2023/04/20 06:53:15;;;;;;;7.07;3.65;;;5.70;99.90;;;;;;5086802;27;20050;-82
2023/04/20 06:55:41;;;;;;;7.35;5.57;;;5.80;99.90;;;;;;5082171;27;20044;-82
2023/04/20 06:58:06;;;;;;;12.90;3.90;;;6.60;99.90;;;;;;5120758;27;20047;-82
2023/04/20 07:00:38;;;;;;;5.68;3.97;;;5.60;99.90;;;;;;5120111;27;20044;-82
2023/04/20 07:03:04;;;;;;;5.50;2.90;;;5.60;99.90;;;;;;5104711;27;20063;-81
2023/04/20 07:05:30;;;;;;;6.35;4.20;;;5.80;99.90;;;;;;5102435;28;20035;-82
2023/04/20 07:07:55;;;;;;;7.95;3.88;;;5.70;99.90;;;;;;5104140;27;20046;-82
2023/04/20 07:10:21;;;;;;;4.22;3.08;;;5.60;99.90;;;;;;5083070;28;20433;-81
2023/04/20 07:12:47;;;;;;;7.20;3.35;;;5.80;99.90;;;;;;5109512;28;20051;-82
2023/04/20 07:15:13;;;;;;;8.13;4.70;;;6.00;99.90;;;;;;5117957;28;20063;-80
2023/04/20 07:17:38;;;;;;;4.78;4.32;;;5.70;99.90;;;;;;5096133;28;20042;-81
2023/04/20 07:20:07;;;;;;;8.98;4.22;;;6.50;99.90;;;;;;5104939;28;20407;-81
2023/04/20 07:22:36;;;;;;;7.35;3.67;;;5.70;99.90;;;;;;5100009;28;20052;-81
2023/04/20 07:25:07;;;;;;;3.30;2.83;;;6.20;99.90;;;;;;5089062;28;20083;-80
2023/04/20 07:27:34;;;;;;;8.07;5.00;;;6.00;99.90;;;;;;5109223;28;20154;-81
2023/04/20 07:30:00;;;;;;;5.95;4.63;;;6.40;99.90;;;;;;5066542;28;20052;-82
2023/04/20 07:32:26;;;;;;;5.75;3.90;;;5.90;99.90;;;;;;5097961;28;20039;-80
2023/04/20 07:34:52;;;;;;;6.00;3.88;;;6.00;99.90;;;;;;5097898;28;20036;-80
2023/04/20 07:37:18;;;;;;;4.05;3.08;;;6.10;99.90;;;;;;5099699;28;20043;-80
2023/04/20 07:39:44;;;;;;;8.20;4.25;;;6.30;99.90;;;;;;5082026;28;20495;-80
2023/04/20 07:42:09;;;;;;;6.40;4.97;;;6.20;99.90;;;;;;5049575;28;20102;-80
2023/04/20 07:44:36;;;;;;;7.80;3.90;;;6.20;99.90;;;;;;5082032;28;20036;-81
2023/04/20 07:47:02;;;;;;;5.88;4.18;;;6.30;99.90;;;;;;5099844;28;20036;-80
2023/04/20 07:49:28;;;;;;;6.88;3.88;;;6.30;99.90;;;;;;5098648;28;20042;-81
2023/04/20 07:51:54;;;;;;;6.90;4.25;;;5.50;99.90;;;;;;5099092;28;20491;-81
2023/04/20 07:54:19;;;;;;;3.20;2.58;;;6.30;99.90;;;;;;5095066;28;20066;-78
2023/04/20 07:56:45;;;;;;;4.80;3.20;;;6.50;99.90;;;;;;5098197;28;20039;-79
2023/04/20 07:59:11;;;;;;;7.75;4.30;;;6.60;99.90;;;;;;5083560;28;20048;-81
2023/04/20 08:01:36;;;;;;;5.72;3.33;;;6.60;99.90;;;;;;5081234;28;20036;-82
2023/04/20 08:04:05;;;;;;;6.25;3.65;;;6.80;99.90;;;;;;5098506;28;20047;-81
2023/04/20 08:06:32;;;;;;;6.43;3.15;;;6.80;99.90;;;;;;5098172;28;20131;-81
2023/04/20 08:08:58;;;;;;;5.35;4.28;;;6.90;99.90;;;;;;5083690;28;20476;-79
2023/04/20 08:11:23;;;;;;;4.38;3.38;;;7.10;99.90;;;;;;5101423;27;20538;-81
2023/04/20 08:13:49;;;;;;;5.60;3.47;;;7.20;99.90;;;;;;5117577;27;20146;-81
2023/04/20 08:16:15;;;;;;;5.32;4.75;;;7.30;99.90;;;;;;5085275;27;20134;-81
2023/04/20 08:18:41;;;;;;;8.68;4.72;;;7.40;99.90;;;;;;5100118;27;20047;-82
2023/04/20 08:21:06;;;;;;;5.63;4.18;;;7.30;99.90;;;;;;5119223;27;20112;-81
2023/04/20 08:23:32;;;;;;;7.07;4.43;;;7.50;99.90;;;;;;5102087;27;20047;-80
2023/04/20 08:25:57;;;;;;;4.07;3.03;;;7.50;99.90;;;;;;5118450;27;20048;-81
2023/04/20 08:28:23;;;;;;;7.03;3.75;;;7.70;99.90;;;;;;5101511;27;20043;-81
2023/04/20 08:30:49;;;;;;;2.83;2.50;;;7.60;99.90;;;;;;5085005;27;20048;-81
2023/04/20 08:33:15;;;;;;;5.43;3.13;;;7.60;99.90;;;;;;5081777;28;20047;-82
2023/04/20 08:35:40;;;;;;;5.50;3.25;;;7.50;99.90;;;;;;5085125;27;20035;-80
2023/04/20 08:38:06;;;;;;;5.03;3.13;;;7.40;99.90;;;;;;5118472;28;20510;-82
2023/04/20 08:40:34;;;;;;;3.85;3.35;;;7.90;99.90;;;;;;5068035;28;20538;-81
2023/04/20 08:43:00;;;;;;;4.18;3.20;;;7.50;99.90;;;;;;5058855;28;20063;-81
2023/04/20 08:45:26;;;;;;;2.33;2.13;;;7.50;99.90;;;;;;5113229;28;20088;-82
2023/04/20 08:47:51;;;;;;;7.60;4.70;;;7.40;99.90;;;;;;5104820;28;20134;-82
2023/04/20 08:50:18;;;;;;;7.75;4.00;;;7.40;99.90;;;;;;5100305;28;20498;-80
2023/04/20 08:52:45;;;;;;;6.05;3.22;;;6.30;99.90;;;;;;5073139;28;20054;-80
2023/04/20 08:55:15;;;;;;;5.20;3.70;;;7.60;99.90;;;;;;5103060;28;20047;-81
2023/04/20 08:57:47;;;;;;;9.95;5.30;;;8.30;99.90;;;;;;5084555;28;20123;-82
2023/04/20 09:00:19;;;;;;;7.00;3.67;;;7.40;99.90;;;;;;5084889;28;20550;-83
2023/04/20 09:02:57;;;;;;;8.13;4.47;;;7.70;99.90;;;;;;5100689;28;20066;-81
2023/04/20 09:05:30;;;;;;;7.78;5.25;;;7.70;99.90;;;;;;5079231;28;20047;-80
2023/04/20 09:07:59;;;;;;;8.40;5.05;;;7.60;99.90;;;;;;5085744;27;20051;-80
2023/04/20 09:10:25;;;;;;;6.32;4.95;;;7.60;99.90;;;;;;5122023;27;20059;-79
2023/04/20 09:12:51;;;;;;;7.22;5.18;;;7.80;99.90;;;;;;5070861;27;20457;-80
2023/04/20 09:15:27;;;;;;;7.60;4.75;;;7.90;99.90;;;;;;5071830;27;20059;-79
2023/04/20 09:17:53;;;;;;;8.20;5.80;;;7.80;99.90;;;;;;5105587;27;20443;-78
2023/04/20 09:20:31;;;;;;;10.35;6.05;;;7.60;99.90;;;;;;5124761;27;20127;-80
2023/04/20 09:22:57;;;;;;;8.65;4.80;;;7.50;99.90;;;;;;5105359;27;20055;-78
2023/04/20 09:25:25;;;;;;;10.18;5.32;;;7.70;99.90;;;;;;5078960;28;20131;-80
2023/04/20 09:27:58;;;;;;;5.10;3.58;;;7.70;99.90;;;;;;5071936;28;20097;-78
2023/04/20 09:30:24;;;;;;;10.00;6.10;;;8.00;99.90;;;;;;5091376;28;20450;-79
2023/04/20 09:33:00;;;;;;;7.47;6.28;;;8.00;99.90;;;;;;5133241;27;20039;-79
2023/04/20 09:35:26;;;;;;;8.90;6.35;;;8.10;99.90;;;;;;5110921;27;20051;-79
2023/04/20 09:37:53;;;;;;;10.93;6.07;;;8.20;99.90;;;;;;5123550;27;20119;-80
2023/04/20 09:40:20;;;;;;;9.05;5.93;;;8.20;99.90;;;;;;5103177;27;20055;-80
2023/04/20 09:42:47;;;;;;;10.43;6.20;;;8.10;99.90;;;;;;5105226;27;20046;-80
2023/04/20 09:45:13;;;;;;;10.60;6.07;;;7.90;99.90;;;;;;5096433;28;20640;-78
2023/04/20 09:47:41;;;;;;;7.45;5.65;;;7.80;99.90;;;;;;5068855;27;20056;-80
2023/04/20 09:50:09;;;;;;;5.80;3.85;;;7.90;99.90;;;;;;5098343;27;20051;-79
2023/04/20 09:52:36;;;;;;;4.68;4.05;;;8.20;99.90;;;;;;5107501;27;21022;-78
2023/04/20 09:55:03;;;;;;;10.68;6.68;;;8.40;99.90;;;;;;5077751;27;20070;-79
2023/04/20 09:57:29;;;;;;;8.30;5.20;;;8.20;99.90;;;;;;5078140;27;20054;-79
2023/04/20 09:59:56;;;;;;;7.30;4.55;;;8.20;99.90;;;;;;5094891;27;20043;-78
2023/04/20 10:02:21;;;;;;;21.23;12.82;;;8.40;99.90;;;;;;5129637;27;20046;-79
2023/04/20 10:04:54;;;;;;;30.85;14.63;;;8.10;99.90;;;;;;5088358;27;20474;-78
2023/04/20 10:07:38;;;;;;;9.82;7.20;;;8.00;99.90;;;;;;5089053;27;20055;-77
2023/04/20 10:10:14;;;;;;;17.93;12.33;;;8.20;99.90;;;;;;5106186;27;20063;-78
2023/04/20 10:13:06;;;;;;;17.88;9.65;;;8.10;99.90;;;;;;5103802;27;20372;-80
2023/04/20 10:15:39;;;;;;;18.17;11.50;;;8.20;99.90;;;;;;5098924;28;20044;-79
2023/04/20 10:18:23;;;;;;;10.65;7.35;;;8.20;99.90;;;;;;5122283;27;20059;-79
2023/04/20 10:20:50;;;;;;;10.50;6.88;;;8.20;99.90;;;;;;5098106;27;20455;-82
2023/04/20 10:23:17;;;;;;;11.27;7.30;;;8.10;99.90;;;;;;5111632;27;20051;-82
2023/04/20 10:25:53;;;;;;;9.20;7.13;;;8.20;99.90;;;;;;5117628;27;20448;-81
2023/04/20 10:28:19;;;;;;;8.57;6.38;;;8.10;99.90;;;;;;5099517;27;20052;-79
2023/04/20 10:30:51;;;;;;;7.00;4.90;;;8.20;99.90;;;;;;5104797;27;20043;-80
2023/04/20 10:33:17;;;;;;;8.52;7.20;;;8.30;99.90;;;;;;5083109;27;20069;-81
2023/04/20 10:35:46;;;;;;;9.13;6.88;;;8.50;99.90;;;;;;5118601;27;20160;-81
2023/04/20 10:38:12;;;;;;;10.73;7.50;;;8.30;99.90;;;;;;5101232;28;20050;-81
2023/04/20 10:40:37;;;;;;;10.38;7.13;;;8.20;99.90;;;;;;5085035;27;20047;-82
2023/04/20 10:43:03;;;;;;;12.93;7.55;;;8.30;99.90;;;;;;5085507;27;20475;-81
2023/04/20 10:45:35;;;;;;;10.40;7.55;;;8.30;99.90;;;;;;5122820;27;20043;-80
2023/04/20 10:48:13;;;;;;;12.65;7.63;;;8.20;99.90;;;;;;5125172;27;20035;-78
2023/04/20 10:50:38;;;;;;;10.60;8.70;;;8.20;99.90;;;;;;5084442;27;20058;-79
2023/04/20 10:53:04;;;;;;;10.75;8.15;;;8.10;99.90;;;;;;5103051;27;20051;-77
2023/04/20 10:55:30;;;;;;;8.73;6.50;;;8.20;99.90;;;;;;5120513;27;20053;-78
2023/04/20 10:57:56;;;;;;;7.88;6.13;;;8.20;99.90;;;;;;5086960;27;20468;-78
2023/04/20 11:00:26;;;;;;;11.30;8.45;;;8.30;99.90;;;;;;5119350;27;20118;-77
2023/04/20 11:02:52;;;;;;;12.80;10.10;;;8.30;99.90;;;;;;5092187;27;20051;-78
2023/04/20 11:05:19;;;;;;;10.40;9.10;;;8.60;99.90;;;;;;5087487;27;20055;-79
2023/04/20 11:07:53;;;;;;;13.85;8.93;;;8.70;99.90;;;;;;5085286;27;20600;-79
2023/04/20 11:10:20;;;;;;;11.55;8.35;;;8.80;99.90;;;;;;5100942;27;20804;-80
2023/04/20 11:12:46;;;;;;;6.82;5.53;;;9.30;99.90;;;;;;5088640;27;20062;-78
2023/04/20 11:15:12;;;;;;;11.82;8.60;;;9.30;99.90;;;;;;5121561;27;20039;-79
2023/04/20 11:17:39;;;;;;;12.18;8.02;;;9.10;99.90;;;;;;5101583;27;20035;-79
2023/04/20 11:20:13;;;;;;;12.05;7.80;;;8.90;99.90;;;;;;5095563;27;20062;-80
2023/04/20 11:22:40;;;;;;;15.52;8.90;;;8.90;99.90;;;;;;5099837;27;20111;-80
2023/04/20 11:25:10;;;;;;;9.95;6.57;;;8.90;99.90;;;;;;5082323;27;20043;-82
2023/04/20 11:27:36;;;;;;;13.77;9.40;;;9.20;99.90;;;;;;5080994;28;20087;-80
2023/04/20 11:30:05;;;;;;;13.43;10.13;;;9.10;99.90;;;;;;5094488;27;20071;-78
2023/04/20 11:32:34;;;;;;;12.43;8.93;;;9.30;99.90;;;;;;5118565;27;20495;-78
2023/04/20 11:35:06;;;;;;;9.05;5.85;;;9.50;99.90;;;;;;5091817;28;20040;-78
2023/04/20 11:37:32;;;;;;;9.90;7.00;;;9.70;99.90;;;;;;5092524;28;20125;-79
2023/04/20 11:39:59;;;;;;;11.05;9.43;;;9.90;99.90;;;;;;5075517;28;20044;-79
2023/04/20 11:42:26;;;;;;;14.63;10.07;;;9.90;99.90;;;;;;5077250;28;20105;-76
2023/04/20 11:44:51;;;;;;;11.77;7.63;;;10.00;99.90;;;;;;5094840;28;20360;-79
2023/04/20 11:47:18;;;;;;;10.13;7.35;;;10.60;99.90;;;;;;5082139;28;20052;-81
2023/04/20 11:49:43;;;;;;;11.25;6.88;;;10.60;99.90;;;;;;5106619;28;20055;-79
2023/04/20 11:52:09;;;;;;;7.65;5.20;;;10.50;99.90;;;;;;5079190;28;20092;-81
2023/04/20 11:54:36;;;;;;;11.30;7.18;;;10.80;99.90;;;;;;5103714;27;20047;-79
2023/04/20 11:57:02;;;;;;;12.05;7.57;;;10.80;99.90;;;;;;5118685;27;20497;-79
2023/04/20 11:59:28;;;;;;;12.43;8.10;;;10.50;99.90;;;;;;5112740;27;20164;-79
2023/04/20 12:01:53;;;;;;;6.65;5.55;;;10.30;99.90;;;;;;5095600;27;20088;-80
2023/04/20 12:04:19;;;;;;;5.80;4.40;;;10.60;99.90;;;;;;5112265;27;20045;-80
2023/04/20 12:06:46;;;;;;;8.75;6.97;;;10.40;99.90;;;;;;5111940;27;20043;-79
2023/04/20 12:09:15;;;;;;;9.15;6.82;;;10.20;99.90;;;;;;5130397;27;20111;-79
2023/04/20 12:11:41;;;;;;;8.10;5.32;;;10.40;99.90;;;;;;5079508;27;20471;-81
2023/04/20 12:14:07;;;;;;;12.52;6.68;;;10.50;99.90;;;;;;5130412;27;20054;-80
2023/04/20 12:16:32;;;;;;;10.80;8.10;;;11.70;99.90;;;;;;5078914;27;20830;-81
2023/04/20 12:18:58;;;;;;;10.48;7.60;;;10.70;99.90;;;;;;5095639;27;20058;-78
2023/04/20 12:21:24;;;;;;;12.77;9.35;;;10.50;99.90;;;;;;5112061;27;20409;-78
2023/04/20 12:23:50;;;;;;;12.98;9.65;;;10.50;99.90;;;;;;5129605;27;20058;-79
2023/04/20 12:26:15;;;;;;;6.45;5.13;;;10.10;99.90;;;;;;5130808;27;20100;-80
2023/04/20 12:28:43;;;;;;;9.85;7.55;;;10.40;99.90;;;;;;5112743;28;20386;-77
2023/04/20 12:31:09;;;;;;;13.32;9.40;;;10.70;99.90;;;;;;5112744;27;20047;-78
2023/04/20 12:33:34;;;;;;;11.65;9.15;;;10.70;99.90;;;;;;5112832;27;20057;-78
2023/04/20 12:36:00;;;;;;;12.52;9.40;;;10.80;99.90;;;;;;5131561;27;20502;-79
2023/04/20 12:38:26;;;;;;;10.82;7.30;;;11.20;99.90;;;;;;5130983;27;20493;-81
2023/04/20 12:40:51;;;;;;;8.18;6.13;;;11.50;99.90;;;;;;5116214;28;20132;-78
2023/04/20 12:43:17;;;;;;;6.03;5.20;;;11.20;99.90;;;;;;5112589;28;20795;-78
2023/04/20 12:45:43;;;;;;;13.43;9.27;;;11.00;99.90;;;;;;5128991;28;20395;-79
2023/04/20 12:48:08;;;;;;;10.18;8.02;;;11.20;99.90;;;;;;5073567;28;20055;-77
2023/04/20 12:50:34;;;;;;;13.75;9.38;;;10.80;99.90;;;;;;5091251;28;20039;-79
2023/04/20 12:53:01;;;;;;;11.30;8.10;;;10.80;99.90;;;;;;5091264;28;20511;-78
2023/04/20 12:55:28;;;;;;;11.35;8.90;;;11.10;99.90;;;;;;5109164;28;20249;-80